Reger, Missouri
Current Conditions -  °F | °C
As of 11:31 AM on Wednesday 26 Nov 2014 (Local Time) from KIRK Reporting Station
Haze Haze  
Wind Chill: 27°   Ceiling: 300
Heat Index: 33°   Visibility: 1.7mi
Dew Point: 32°   Wind: 7mph
Humidity: 96%   Direction: 160°SSE
Pressure: 29.92"   Gusts: NA
Location:  40.1663°N, 93.1629°W
Report Text: KIRK 261731Z AUTO 16006KT 1 3/4SM BR OVC003 01/00 A2992 RMK AO2 T00060000
Loading
Personal Weather Stations






























Interactive Weather Map New forecast layout! Learn more

10-Day Weather Forecast

Advertisements
Track Severe Weather on mobile